Selected Arizona METAR Reports


Metar stations are listed by distance from this station - near to far. The 'official' reporting station for the Greater Phoenix area is KPHX - Phoenix/Sky Harbor.

KDVT - Phoenix/Deer Valley, Arizona, USA
Distance from station: NW 4mi, 7km
Updated: Sun 20 Aug 2017 1353 MST
Clear
Clear
 Wind from S
Wind: S 3 mph , 6 km/h
Temperature: 93°F , 34°C
Dew Point: 48°F , 9°C
Humidity: 21%
Barometer: 29.88 inHg , 1011.9 hPa
Clouds: Clear
Visibility: 10 miles , 16 km
2017/08/20 20:53 KDVT 202053Z AUTO 18003KT 10SM CLR 34/09 A2988 RMK AO2 SLP088 T03390089 58019
KSDL - Scottsdale, Arizona, USA
Distance from station: ESE 6mi, 9km
Updated: Sun 20 Aug 2017 1353 MST
Clear
Clear
 Wind from SSW
Wind: SSW 5 mph , 7 km/h
Temperature: 93°F , 34°C
Dew Point: 52°F , 11°C
Humidity: 24%
Barometer: 29.89 inHg , 1012.2 hPa
Clouds: Clear
Visibility: 10 miles , 16 km
2017/08/20 20:53 KSDL 202053Z 21004KT 10SM CLR 34/11 A2989 RMK AO2 SLP092 T03390106 58019
 
KPHX - Phoenix/Sky Harbor, Arizona, USA
Distance from station: S 15mi, 24km
Updated: Sun 20 Aug 2017 1351 MST
Mostly cloudy
Mostly cloudy
 Wind from S
Wind: S 5 mph , 7 km/h
Temperature: 97°F , 36°C
Dew Point: 48°F , 9°C
Humidity: 19%
Barometer: 29.84 inHg , 1010.5 hPa
Clouds: Mostly cloudy
Visibility: 10 miles , 16 km
Cloud details: Few Clouds 12000 ft
Mostly cloudy 18000 ft
Mostly cloudy 25000 ft
2017/08/20 20:51 KPHX 202051Z 19004KT 10SM FEW120 BKN180 BKN250 36/09 A2984 RMK AO2 SLP083 T03610089 58021 $
KGEU - Glendale, Arizona, USA
Distance from station: WSW 19mi, 30km
Updated: Sun 20 Aug 2017 1355 MST
Mostly cloudy
Mostly cloudy
 Wind from varies
Wind: varies 3 mph , 6 km/h
Temperature: 97°F , 36°C
Dew Point: 54°F , 12°C
Humidity: 23%
Barometer: 29.87 inHg , 1011.5 hPa
Clouds: Mostly cloudy
Visibility: 10 miles , 16 km
Cloud details: Partly cloudy 12000 ft
Mostly cloudy 18000 ft
Mostly cloudy 20000 ft
2017/08/20 20:55 KGEU 202055Z VRB03KT 10SM SCT120 BKN180 BKN200 36/12 A2987
 
KFFZ - Mesa/Falcon Field, Arizona, USA
Distance from station: SE 21mi, 33km
Updated: Sun 20 Aug 2017 1347 MST
Mostly cloudy
Mostly cloudy
 Wind from SW
Wind: SW 7 mph , 11 km/h
Temperature: 97°F , 36°C
Dew Point: 55°F , 13°C
Humidity: 25%
Barometer: 29.88 inHg , 1011.9 hPa
Clouds: Mostly cloudy
Visibility: 40 miles , 64 km
Cloud details: Few Clouds 12000 ft
Mostly cloudy 18000 ft
2017/08/20 20:47 KFFZ 202047Z 22006KT 40SM FEW120 BKN180 36/13 A2988
KLUF - Luke AFB/Glendale, Arizona, USA
Distance from station: WSW 23mi, 36km
Updated: Sun 20 Aug 2017 1358 MST
Few Clouds
Few Clouds
 Wind from calm
Wind: Calm
Temperature: 91°F , 33°C
Dew Point: 54°F , 12°C
Humidity: 28%
Barometer: 29.85 inHg , 1010.8 hPa
Clouds: Few Clouds
Visibility: 10 miles , 16 km
Cloud details: Few Clouds 18000 ft
2017/08/20 20:58 KLUF 202058Z AUTO 00000KT 10SM FEW180 33/12 A2985 RMK AO2 SLP093 T03330123 57017 $
 
KGYR - Goodyear Municipal, Arizona, USA
Distance from station: SW 26mi, 42km
Updated: Sun 20 Aug 2017 1347 MST
Mostly cloudy
Mostly cloudy
 Wind from N
Wind: N 6 mph , 9 km/h
Temperature: 95°F , 35°C
Dew Point: 55°F , 13°C
Humidity: 26%
Barometer: 29.86 inHg , 1011.2 hPa
Clouds: Mostly cloudy
Visibility: 10 miles , 16 km
Cloud details: Partly cloudy 12000 ft
Mostly cloudy 16000 ft
Mostly cloudy 20000 ft
2017/08/20 20:47 KGYR 202047Z 36005KT 10SM SCT120 BKN160 BKN200 35/13 A2986
KIWA - Chandler/Mesa, Arizona, USA
Distance from station: SE 32mi, 51km
Updated: Sun 20 Aug 2017 1355 MST
Partly cloudy
Partly cloudy
 Wind from WSW
Wind: WSW 10 mph , 17 km/h
Temperature: 97°F , 36°C
Dew Point: 54°F , 12°C
Humidity: 23%
Barometer: 29.88 inHg , 1011.9 hPa
Clouds: Partly cloudy
Visibility: 45 miles , 72 km
Cloud details: Partly cloudy 20000 ft
2017/08/20 20:55 KIWA 202055Z 24009KT 45SM SCT200 36/12 A2988
 
KBXK - Buckeye, Arizona, USA
Distance from station: WSW 42mi, 68km
Updated: Sun 20 Aug 2017 1415 MST
Clear
Clear
 Wind from SE
Wind: SE 9 mph , 15 km/h
Temperature: 95°F , 35°C
Dew Point: 54°F , 12°C
Humidity: 25%
Barometer: 29.85 inHg , 1010.8 hPa
Clouds: Clear
Visibility: 10 miles , 16 km
2017/08/20 21:15 KBXK 202115Z AUTO 13008KT 10SM CLR 35/12 A2985 RMK AO1
KCGZ - Casa Grande, Arizona, USA
Distance from station: SSE 50mi, 81km
Updated: Sun 20 Aug 2017 1356 MST
Clear
Clear
 Wind from calm
Wind: Calm
Temperature: 97°F , 36°C
Dew Point: 50°F , 10°C
Humidity: 20%
Barometer: 29.89 inHg , 1012.2 hPa
Clouds: Clear
Visibility: 10 miles , 16 km
2017/08/20 20:56 KCGZ 202056Z AUTO 00000KT 10SM CLR 36/10 A2989 RMK AO2 SLP102 T03560100 58020 $
 
KPAN - Payson, Arizona, USA
Distance from station: NE 57mi, 91km
Updated: Sun 20 Aug 2017 1355 MST

 Wind from SW
Wind: SW 12 mph , 19 km/h, Gust: 20 mph , 31 km/h
Temperature: 84°F , 29°C
Dew Point: 45°F , 7°C
Humidity: 25%
Barometer: 30.14 inHg , 1020.7 hPa
Visibility: 10 miles , 16 km
2017/08/20 20:55 KPAN 202055Z AUTO 23010G17KT 200V270 10SM 29/07 A3014 RMK AO2
KGBN - Gila Bend (aaf), Arizona, USA
Distance from station: SW 68mi, 109km
Updated: Thu 20 Jul 2017 0757 MST
NOT Current
Partly cloudy
Partly cloudy
 Wind from calm
Wind: Calm
Temperature: 86°F , 30°C
Heat Index: 89°F , 32°C
Dew Point: 68°F , 20°C
Humidity: 55%
Barometer: 29.97 inHg , 1014.9 hPa
Clouds: Partly cloudy
Visibility: 10 miles , 16 km
Cloud details: Few Clouds 10000 ft
Partly cloudy 15000 ft
2017/07/20 14:57 KGBN 201457Z 00000KT 10SM FEW100 SCT150 30/20 A2997 RMK A02 NO SLP
 
KPRC - Prescott, Arizona, USA
Distance from station: NNW 73mi, 118km
Updated: Sun 20 Aug 2017 1353 MST
Clear
Clear
 Wind from WSW
Wind: WSW 8 mph , 13 km/h
Temperature: 84°F , 29°C
Dew Point: 46°F , 8°C
Humidity: 27%
Barometer: 30.12 inHg , 1020 hPa
Clouds: Clear
Visibility: 10 miles , 16 km
2017/08/20 20:53 KPRC 202053Z 24007KT 10SM CLR 29/08 A3012 RMK AO2 SLP114 T02890078 58016
KSEZ - Sedona, Arizona, USA
Distance from station: N 84mi, 135km
Updated: Sun 20 Aug 2017 1355 MST
Nearby thunderstorm, Clear
Nearby thunderstorm, Clear
 Wind from S
Wind: S 12 mph , 19 km/h, Gust: 16 mph , 26 km/h
Temperature: 88°F , 31°C
Dew Point: 46°F , 8°C
Humidity: 24%
Barometer: 30.09 inHg , 1019 hPa
Summary: Nearby Thunderstorm
Clouds: Clear
Visibility: 10 miles , 16 km
2017/08/20 20:55 KSEZ 202055Z AUTO 19010G14KT 10SM VCTS CLR 31/08 A3009 RMK AO2 LTG DSNT W THRU E
 
KFLG - Flagstaff, Arizona, USA
Distance from station: N 105mi, 168km
Updated: Sun 20 Aug 2017 1357 MST
Light thunderstorm, Rain, Mostly cloudy
Light thunderstorm, Rain, Mostly cloudy
 Wind from SW
Wind: SW 10 mph , 17 km/h, Gust: 16 mph , 26 km/h
Temperature: 70°F , 21°C
Dew Point: 46°F , 8°C
Humidity: 43%
Barometer: 30.26 inHg , 1024.7 hPa
Summary: Light thunderstorm, Rain
Clouds: Mostly cloudy
Visibility: 9 miles , 14 km
Cloud details: Mostly cloudy 8000 ft
2017/08/20 20:57 KFLG 202057Z 23009G14KT 9SM -TSRA BKN080CB 21/08 A3026 RMK AO2 LTG DSNT ALQDS RAB52 TSB34 SLP149 OCNL LTGCG E TS E MOV LTL P0000 60000 T02060083 56012 $
KRYN - Tucson/Ryan Field, Arizona, USA
Distance from station: SSE 114mi, 184km
Updated: Sun 20 Aug 2017 1345 MST
Clear
Clear
 Wind from NE
Wind: NE 6 mph , 9 km/h
Temperature: 93°F , 34°C
Dew Point: 50°F , 10°C
Humidity: 23%
Barometer: 29.96 inHg , 1014.6 hPa
Clouds: Clear
Visibility: 10 miles , 16 km
2017/08/20 20:45 KRYN 202045Z 05005KT 10SM CLR 34/10 A2996
 
KCMR - Williams Clark, Arizona, USA
Distance from station: N 115mi, 185km
Updated: Sun 20 Aug 2017 1355 MST
Clear
Clear
 Wind from WSW
Wind: WSW 9 mph , 15 km/h
Temperature: 75°F , 24°C
Dew Point: 48°F , 9°C
Humidity: 39%
Barometer: 30.24 inHg , 1024 hPa
Clouds: Clear
Visibility: 10 miles , 16 km
2017/08/20 20:55 KCMR 202055Z AUTO 25008KT 10SM CLR 24/09 A3024 RMK AO2
KINW - Winslow, Arizona, USA
Distance from station: NE 121mi, 194km
Updated: Sun 20 Aug 2017 1356 MST
Few Clouds
Few Clouds
 Wind from varies
Wind: varies 5 mph , 7 km/h
Temperature: 90°F , 32°C
Dew Point: 37°F , 3°C
Humidity: 16%
Barometer: 30.06 inHg , 1017.9 hPa
Clouds: Few Clouds
Visibility: 10 miles , 16 km
Cloud details: Few Clouds 11000 ft
2017/08/20 20:56 KINW 202056Z AUTO VRB04KT 10SM FEW110 32/03 A3006 RMK AO2 LTG DSNT S-W SLP090 T03170028 56017
 
KTUS - Tucson, Arizona, USA
Distance from station: SSE 121mi, 195km
Updated: Sun 20 Aug 2017 1353 MST
Partly cloudy
Partly cloudy
 Wind from NNE
Wind: NNE 3 mph , 6 km/h
Temperature: 90°F , 32°C
Dew Point: 55°F , 13°C
Humidity: 31%
Barometer: 29.97 inHg , 1014.9 hPa
Clouds: Partly cloudy
Visibility: 10 miles , 16 km
Cloud details: Partly cloudy 9500 ft
2017/08/20 20:53 KTUS 202053Z 02003KT 10SM SCT095 32/13 A2997
KDMA - Davis AFB/Tucson, Arizona, USA
Distance from station: SE 122mi, 196km
Updated: Sun 20 Aug 2017 1358 MST
Overcast
Overcast
 Wind from calm
Wind: Calm
Temperature: 95°F , 35°C
Dew Point: 54°F , 12°C
Humidity: 25%
Barometer: 29.97 inHg , 1014.9 hPa
Clouds: Overcast
Visibility: 10 miles , 16 km
Cloud details: Overcast 12000 ft
2017/08/20 20:58 KDMA 202058Z AUTO 00000KT 10SM OVC120 35/12 A2997 RMK AO2 SLP100 T03490119 57017 $
 
KSOW - Show Low Municipal, Arizona, USA
Distance from station: ENE 123mi, 198km
Updated: Sun 20 Aug 2017 1355 MST
Few Clouds
Few Clouds
 Wind from SSW
Wind: SSW 13 mph , 20 km/h
Temperature: 77°F , 25°C
Dew Point: 52°F , 11°C
Humidity: 42%
Barometer: 30.20 inHg , 1022.7 hPa
Clouds: Few Clouds
Visibility: 9 miles , 14 km
Cloud details: Few Clouds 11000 ft
2017/08/20 20:55 KSOW 202055Z AUTO 20011KT 9SM FEW110 25/11 A3020 RMK AO2 LTG DSNT W
KSAD - Safford, Arizona, USA
Distance from station: ESE 148mi, 238km
Updated: Sun 20 Aug 2017 1351 MST
Overcast
Overcast
 Wind from S
Wind: S 5 mph , 7 km/h
Temperature: 82°F , 28°C
Heat Index: 82°F , 28°C
Dew Point: 57°F , 14°C
Humidity: 42%
Barometer: 30.01 inHg , 1016.3 hPa
Clouds: Overcast
Visibility: 10 miles , 16 km
Cloud details: Overcast 11000 ft
2017/08/20 20:51 KSAD 202051Z AUTO 19004KT 10SM OVC110 28/14 A3001 RMK AO2 SLP107 T02830139 56015